createdAt,value
2018-12-22T00:00:14.199Z,9.94
2018-12-22T00:01:14.155Z,9.93
2018-12-22T00:02:14.147Z,9.88
2018-12-22T00:03:14.136Z,9.91
2018-12-22T00:04:14.123Z,9.83
2018-12-22T00:05:14.135Z,9.91
2018-12-22T00:06:14.104Z,9.90
2018-12-22T00:07:14.090Z,9.93
2018-12-22T00:08:14.076Z,9.93
2018-12-22T00:09:14.070Z,9.93
2018-12-22T00:10:14.080Z,9.93
2018-12-22T00:11:14.055Z,9.94
2018-12-22T00:12:14.035Z,9.94
2018-12-22T00:13:14.017Z,9.98
2018-12-22T00:14:14.011Z,9.97
2018-12-22T00:15:14.020Z,9.94
2018-12-22T00:16:13.990Z,9.95
2018-12-22T00:17:13.987Z,9.97
2018-12-22T00:18:13.978Z,9.94
2018-12-22T00:19:13.987Z,10.01
2018-12-22T00:20:13.946Z,9.90
2018-12-22T00:21:13.958Z,10.04
2018-12-22T00:22:13.928Z,9.95
2018-12-22T00:23:13.920Z,9.94
2018-12-22T00:24:13.899Z,9.93
2018-12-22T00:25:13.891Z,9.98
2018-12-22T00:26:14.291Z,9.94
2018-12-22T00:27:13.885Z,9.94
2018-12-22T00:28:21.986Z,9.93
2018-12-22T00:29:14.847Z,9.97
2018-12-22T00:30:13.835Z,9.94
2018-12-22T00:31:13.839Z,9.94
2018-12-22T00:32:13.808Z,10.00
2018-12-22T00:33:15.750Z,9.95
2018-12-22T00:34:13.784Z,9.94
2018-12-22T00:35:13.781Z,10.01
2018-12-22T00:36:13.793Z,9.93
2018-12-22T00:37:13.760Z,9.94
2018-12-22T00:38:13.750Z,9.98
2018-12-22T00:39:13.739Z,9.97
2018-12-22T00:40:13.772Z,10.01
2018-12-22T00:41:13.738Z,9.97
2018-12-22T00:42:13.706Z,9.95
2018-12-22T00:43:13.685Z,9.94
2018-12-22T00:44:13.678Z,9.98
2018-12-22T00:45:13.665Z,9.91
2018-12-22T00:46:13.683Z,10.02
2018-12-22T00:47:13.647Z,10.00
2018-12-22T00:48:13.641Z,9.93
2018-12-22T00:49:13.619Z,9.98
2018-12-22T00:50:13.615Z,10.00
2018-12-22T00:51:13.633Z,9.97
2018-12-22T00:52:13.672Z,9.93
2018-12-22T00:53:13.576Z,10.04
2018-12-22T00:54:13.573Z,9.91
2018-12-22T00:55:13.556Z,9.93
2018-12-22T00:56:13.576Z,9.91
2018-12-22T00:57:13.534Z,9.97
2018-12-22T00:58:13.519Z,9.91
2018-12-22T00:59:13.509Z,9.93
2018-12-22T01:00:13.808Z,10.01
2018-12-22T01:01:13.518Z,9.93
2018-12-22T01:02:13.480Z,9.93
2018-12-22T01:03:13.465Z,9.93
2018-12-22T01:04:13.455Z,9.90
2018-12-22T01:05:13.444Z,9.95
2018-12-22T01:06:13.451Z,9.85
2018-12-22T01:07:13.416Z,9.93
2018-12-22T01:08:13.412Z,9.91
2018-12-22T01:09:13.397Z,9.90
2018-12-22T01:10:13.385Z,9.90
2018-12-22T01:11:13.410Z,9.83
2018-12-22T01:12:13.372Z,9.88
2018-12-22T01:13:13.352Z,9.93
2018-12-22T01:14:13.344Z,9.88
2018-12-22T01:15:13.329Z,9.95
2018-12-22T01:16:13.325Z,9.91
2018-12-22T01:17:13.343Z,9.95
2018-12-22T01:18:13.297Z,9.90
2018-12-22T01:19:13.288Z,9.86
2018-12-22T01:20:13.277Z,9.95
2018-12-22T01:21:13.264Z,9.90
2018-12-22T01:22:13.285Z,9.83
2018-12-22T01:23:13.246Z,9.95
2018-12-22T01:24:13.231Z,9.90
2018-12-22T01:25:13.221Z,9.86
2018-12-22T01:26:13.209Z,9.93
2018-12-22T01:27:13.228Z,9.93
2018-12-22T01:28:13.186Z,9.93
2018-12-22T01:29:13.175Z,9.95
2018-12-22T01:30:13.169Z,9.85
2018-12-22T01:31:13.149Z,9.88
2018-12-22T01:32:13.161Z,9.88
2018-12-22T01:33:13.130Z,9.90
2018-12-22T01:34:13.119Z,9.91
2018-12-22T01:35:13.174Z,9.82
2018-12-22T01:36:13.099Z,9.85
2018-12-22T01:37:13.106Z,9.90
2018-12-22T01:38:13.075Z,9.93
2018-12-22T01:39:13.063Z,9.95
2018-12-22T01:40:13.051Z,9.94
2018-12-22T01:41:13.045Z,9.91
2018-12-22T01:42:13.034Z,9.90
2018-12-22T01:43:13.014Z,9.91
2018-12-22T01:44:13.012Z,9.85
2018-12-22T01:45:12.995Z,9.88
2018-12-22T01:46:13.070Z,9.83
2018-12-22T01:47:12.992Z,9.83
2018-12-22T01:48:12.963Z,9.86
2018-12-22T01:49:13.061Z,9.86
2018-12-22T01:50:12.941Z,9.79
2018-12-22T01:51:12.937Z,9.83
2018-12-22T01:52:12.920Z,9.77
2018-12-22T01:53:12.920Z,9.67
2018-12-22T01:54:12.898Z,9.75
2018-12-22T01:55:12.887Z,9.70
2018-12-22T01:56:12.876Z,9.70
2018-12-22T01:57:12.860Z,9.62
2018-12-22T01:58:12.867Z,9.54
2018-12-22T01:59:12.847Z,9.59
2018-12-22T02:00:12.824Z,9.61
2018-12-22T02:01:12.818Z,9.55
2018-12-22T02:02:12.804Z,9.55
2018-12-22T02:03:12.810Z,9.58
2018-12-22T02:04:12.782Z,9.54
2018-12-22T02:05:12.781Z,9.59
2018-12-22T02:06:12.762Z,9.58
2018-12-22T02:07:12.852Z,9.59
2018-12-22T02:08:12.761Z,9.58
2018-12-22T02:09:12.726Z,9.58
2018-12-22T02:10:12.715Z,9.59
2018-12-22T02:11:12.727Z,9.52
2018-12-22T02:12:12.699Z,9.64
2018-12-22T02:13:12.720Z,9.62
2018-12-22T02:14:12.673Z,9.55
2018-12-22T02:15:12.655Z,9.52
2018-12-22T02:16:12.649Z,9.46
2018-12-22T02:17:12.640Z,9.58
2018-12-22T02:18:12.645Z,9.47
2018-12-22T02:19:13.521Z,9.47
2018-12-22T02:20:12.600Z,9.47
2018-12-22T02:21:12.592Z,9.47
2018-12-22T02:22:12.584Z,9.47
2018-12-22T02:23:12.594Z,9.52
2018-12-22T02:24:12.557Z,9.49
2018-12-22T02:25:12.547Z,9.51
2018-12-22T02:26:12.535Z,9.46
2018-12-22T02:27:12.521Z,9.43
2018-12-22T02:28:12.611Z,9.42
2018-12-22T02:29:12.509Z,9.47
2018-12-22T02:30:12.490Z,9.34
2018-12-22T02:31:12.474Z,9.43
2018-12-22T02:32:12.477Z,9.37
2018-12-22T02:33:12.468Z,9.37
2018-12-22T02:34:12.448Z,9.33
2018-12-22T02:35:12.434Z,9.34
2018-12-22T02:36:12.421Z,9.37
2018-12-22T02:37:12.422Z,9.34
2018-12-22T02:38:12.442Z,9.36
2018-12-22T02:39:12.387Z,9.26
2018-12-22T02:40:12.385Z,9.36
2018-12-22T02:41:12.375Z,9.28
2018-12-22T02:42:12.351Z,9.26
2018-12-22T02:43:12.342Z,9.25
2018-12-22T02:44:12.353Z,9.37
2018-12-22T02:45:12.323Z,9.28
2018-12-22T02:46:12.319Z,9.32
2018-12-22T02:47:12.296Z,9.33
2018-12-22T02:48:12.281Z,9.26
2018-12-22T02:49:12.294Z,9.26
2018-12-22T02:50:12.259Z,9.25
2018-12-22T02:51:12.428Z,9.25
2018-12-22T02:52:12.245Z,9.28
2018-12-22T02:53:12.237Z,9.29
2018-12-22T02:54:12.230Z,9.25
2018-12-22T02:55:12.335Z,9.28
2018-12-22T02:56:12.199Z,9.32
2018-12-22T02:57:12.184Z,9.26
2018-12-22T02:58:12.176Z,9.25
2018-12-22T02:59:12.182Z,9.33
2018-12-22T03:00:12.162Z,9.24
2018-12-22T03:01:12.142Z,9.28
2018-12-22T03:02:12.131Z,9.34
2018-12-22T03:03:12.127Z,9.33
2018-12-22T03:04:12.118Z,9.28
2018-12-22T03:05:12.095Z,9.34
2018-12-22T03:06:12.088Z,9.28
2018-12-22T03:07:12.066Z,9.32
2018-12-22T03:08:12.066Z,9.25
2018-12-22T03:09:12.074Z,9.32
2018-12-22T03:10:12.046Z,9.29
2018-12-22T03:11:12.028Z,9.28
2018-12-22T03:12:12.023Z,9.22
2018-12-22T03:13:12.003Z,9.22
2018-12-22T03:14:12.012Z,9.22
2018-12-22T03:15:11.991Z,9.24
2018-12-22T03:16:11.974Z,9.25
2018-12-22T03:17:11.959Z,9.22
2018-12-22T03:18:11.949Z,9.28
2018-12-22T03:19:11.963Z,9.29
2018-12-22T03:20:11.929Z,9.25
2018-12-22T03:21:11.911Z,9.24
2018-12-22T03:22:11.903Z,9.14
2018-12-22T03:23:11.893Z,9.19
2018-12-22T03:24:11.881Z,9.10
2018-12-22T03:25:11.889Z,9.24
2018-12-22T03:26:11.856Z,9.18
2018-12-22T03:27:11.851Z,9.14
2018-12-22T03:28:11.850Z,9.19
2018-12-22T03:29:15.802Z,9.18
2018-12-22T03:30:11.836Z,9.18
2018-12-22T03:31:11.802Z,9.22
2018-12-22T03:32:11.791Z,9.21
2018-12-22T03:33:11.863Z,9.24
2018-12-22T03:34:11.772Z,9.21
2018-12-22T03:35:11.770Z,9.18
2018-12-22T03:36:11.746Z,9.19
2018-12-22T03:37:11.844Z,9.21
2018-12-22T03:38:11.723Z,9.21
2018-12-22T03:39:11.712Z,9.21
2018-12-22T03:40:11.722Z,9.14
2018-12-22T03:41:11.689Z,9.08
2018-12-22T03:42:11.679Z,9.18
2018-12-22T03:43:11.670Z,9.21
2018-12-22T03:44:11.662Z,9.16
2018-12-22T03:45:11.737Z,9.24
2018-12-22T03:46:11.634Z,9.21
2018-12-22T03:47:11.621Z,9.21
2018-12-22T03:48:11.653Z,9.05
2018-12-22T03:49:11.600Z,9.11
2018-12-22T03:50:11.600Z,9.16
2018-12-22T03:51:11.582Z,9.18
2018-12-22T03:52:11.564Z,9.03
2018-12-22T03:53:11.560Z,8.99
2018-12-22T03:54:11.547Z,9.06
2018-12-22T03:55:11.609Z,9.05
2018-12-22T03:56:11.514Z,8.99
2018-12-22T03:57:11.506Z,9.00
2018-12-22T03:58:11.498Z,8.96
2018-12-22T03:59:11.484Z,8.98
2018-12-22T04:00:11.493Z,8.99
2018-12-22T04:01:11.468Z,8.99
2018-12-22T04:02:11.452Z,8.91
2018-12-22T04:03:12.035Z,8.93
2018-12-22T04:04:11.438Z,8.96
2018-12-22T04:05:11.440Z,8.99
2018-12-22T04:06:11.408Z,8.93
2018-12-22T04:07:11.394Z,8.90
2018-12-22T04:08:11.384Z,8.88
2018-12-22T04:09:11.376Z,8.96
2018-12-22T04:10:11.492Z,8.85
2018-12-22T04:11:11.345Z,8.95
2018-12-22T04:12:11.337Z,8.90
2018-12-22T04:13:11.321Z,8.91
2018-12-22T04:14:11.314Z,8.82
2018-12-22T04:15:11.319Z,8.88
2018-12-22T04:16:11.293Z,8.77
2018-12-22T04:17:11.273Z,8.81
2018-12-22T04:18:11.277Z,8.80
2018-12-22T04:19:11.255Z,8.75
2018-12-22T04:20:11.323Z,8.77
2018-12-22T04:21:11.241Z,8.80
2018-12-22T04:22:11.222Z,8.81
2018-12-22T04:23:11.217Z,8.77
2018-12-22T04:24:11.213Z,8.78
2018-12-22T04:25:11.194Z,8.77
2018-12-22T04:26:11.196Z,8.85
2018-12-22T04:27:11.161Z,8.78
2018-12-22T04:28:11.154Z,8.81
2018-12-22T04:29:11.144Z,8.80
2018-12-22T04:30:11.133Z,8.78
2018-12-22T04:31:11.127Z,8.78
2018-12-22T04:32:11.110Z,8.78
2018-12-22T04:33:11.108Z,8.77
2018-12-22T04:34:11.079Z,8.80
2018-12-22T04:35:11.078Z,8.78
2018-12-22T04:36:11.082Z,8.85
2018-12-22T04:37:11.053Z,8.82
2018-12-22T04:38:11.038Z,8.81
2018-12-22T04:39:11.025Z,8.78
2018-12-22T04:40:11.016Z,8.81
2018-12-22T04:41:11.024Z,8.73
2018-12-22T04:42:11.003Z,8.78
2018-12-22T04:43:10.982Z,8.77
2018-12-22T04:44:10.969Z,8.81
2018-12-22T04:45:10.957Z,8.78
2018-12-22T04:46:10.965Z,8.75
2018-12-22T04:47:10.933Z,8.75
2018-12-22T04:48:10.926Z,8.81
2018-12-22T04:49:10.914Z,8.77
2018-12-22T04:50:10.906Z,8.73
2018-12-22T04:51:10.913Z,8.73
2018-12-22T04:52:10.886Z,8.70
2018-12-22T04:53:10.874Z,8.72
2018-12-22T04:54:10.853Z,8.72
2018-12-22T04:55:10.856Z,8.70
2018-12-22T04:56:10.863Z,8.73
2018-12-22T04:57:10.821Z,8.64
2018-12-22T04:58:10.814Z,8.69
2018-12-22T04:59:10.815Z,8.70
2018-12-22T05:00:10.788Z,8.73
2018-12-22T05:01:10.795Z,8.67
2018-12-22T05:02:10.757Z,8.67
2018-12-22T05:03:10.822Z,8.62
2018-12-22T05:04:10.751Z,8.70
2018-12-22T05:05:10.733Z,8.69
2018-12-22T05:06:10.742Z,8.72
2018-12-22T05:07:10.708Z,8.64
2018-12-22T05:08:10.701Z,8.66
2018-12-22T05:09:10.696Z,8.73
2018-12-22T05:10:10.674Z,8.62
2018-12-22T05:11:10.663Z,8.69
2018-12-22T05:12:10.665Z,8.67
2018-12-22T05:13:10.647Z,8.73
2018-12-22T05:14:10.630Z,8.72
2018-12-22T05:15:10.638Z,8.73
2018-12-22T05:16:10.606Z,8.64
2018-12-22T05:17:10.613Z,8.64
2018-12-22T05:18:10.579Z,8.69
2018-12-22T05:19:10.572Z,8.60
2018-12-22T05:20:10.566Z,8.62
2018-12-22T05:21:10.546Z,8.66
2018-12-22T05:22:10.559Z,8.62
2018-12-22T05:23:10.523Z,8.64
2018-12-22T05:24:10.515Z,8.66
2018-12-22T05:25:10.499Z,8.72
2018-12-22T05:26:10.489Z,8.69
2018-12-22T05:27:10.507Z,8.69
2018-12-22T05:28:10.473Z,8.63
2018-12-22T05:29:10.458Z,8.60
2018-12-22T05:30:10.445Z,8.63
2018-12-22T05:31:10.437Z,8.63
2018-12-22T05:32:10.447Z,8.64
2018-12-22T05:33:10.419Z,8.63
2018-12-22T05:34:10.405Z,8.63
2018-12-22T05:35:10.386Z,8.64
2018-12-22T05:36:10.372Z,8.62
2018-12-22T05:37:10.385Z,8.57
2018-12-22T05:38:10.353Z,8.57
2018-12-22T05:39:10.342Z,8.54
2018-12-22T05:40:10.336Z,8.57
2018-12-22T05:41:10.314Z,8.60
2018-12-22T05:42:10.329Z,8.48
2018-12-22T05:43:10.297Z,8.49
2018-12-22T05:44:10.287Z,8.54
2018-12-22T05:45:10.281Z,8.48
2018-12-22T05:46:10.265Z,8.51
2018-12-22T05:47:10.259Z,8.52
2018-12-22T05:48:10.241Z,8.49
2018-12-22T05:49:10.231Z,8.47
2018-12-22T05:50:10.219Z,8.49
2018-12-22T05:51:10.203Z,8.62
2018-12-22T05:52:10.199Z,8.62
2018-12-22T05:53:10.201Z,8.54
2018-12-22T05:54:10.169Z,8.62
2018-12-22T05:55:10.157Z,8.51
2018-12-22T05:56:10.153Z,8.51
2018-12-22T05:57:10.133Z,8.59
2018-12-22T05:58:10.149Z,8.54
2018-12-22T05:59:10.129Z,8.57
2018-12-22T06:00:10.096Z,8.59
2018-12-22T06:01:10.095Z,8.57
2018-12-22T06:02:10.083Z,8.57
2018-12-22T06:03:10.085Z,8.57
2018-12-22T06:04:10.055Z,8.64
2018-12-22T06:05:10.043Z,8.55
2018-12-22T06:06:10.029Z,8.57
2018-12-22T06:07:10.013Z,8.54
2018-12-22T06:08:10.021Z,8.62
2018-12-22T06:09:09.993Z,8.55
2018-12-22T06:10:09.983Z,8.52
2018-12-22T06:11:09.984Z,8.44
2018-12-22T06:12:09.966Z,8.60
2018-12-22T06:13:09.999Z,8.54
2018-12-22T06:14:09.931Z,8.49
2018-12-22T06:15:09.929Z,8.49
2018-12-22T06:16:09.918Z,8.49
2018-12-22T06:17:09.903Z,8.47
2018-12-22T06:18:09.917Z,8.49
2018-12-22T06:19:09.882Z,8.54
2018-12-22T06:20:09.865Z,8.48
2018-12-22T06:21:09.859Z,8.48
2018-12-22T06:22:09.849Z,8.49
2018-12-22T06:23:09.852Z,8.49
2018-12-22T06:24:09.828Z,8.49
2018-12-22T06:25:09.812Z,8.55
2018-12-22T06:26:09.801Z,8.45
2018-12-22T06:27:09.788Z,8.51
2018-12-22T06:28:09.794Z,8.47
2018-12-22T06:29:09.769Z,8.49
2018-12-22T06:30:09.751Z,8.45
2018-12-22T06:31:09.740Z,8.49
2018-12-22T06:32:09.740Z,8.60
2018-12-22T06:33:09.737Z,8.55
2018-12-22T06:34:09.706Z,8.52
2018-12-22T06:35:09.693Z,8.51
2018-12-22T06:36:09.679Z,8.51
2018-12-22T06:37:09.675Z,8.48
2018-12-22T06:38:09.659Z,8.49
2018-12-22T06:39:09.666Z,8.48
2018-12-22T06:40:09.632Z,8.48
2018-12-22T06:41:09.628Z,8.48
2018-12-22T06:42:09.618Z,8.55
2018-12-22T06:43:09.600Z,8.48
2018-12-22T06:44:09.623Z,8.48
2018-12-22T06:45:09.582Z,8.47
2018-12-22T06:46:09.654Z,8.48
2018-12-22T06:47:09.556Z,8.49
2018-12-22T06:48:09.549Z,8.49
2018-12-22T06:49:09.544Z,8.48
2018-12-22T06:50:09.530Z,8.47
2018-12-22T06:51:09.512Z,8.41
2018-12-22T06:52:09.506Z,8.39
2018-12-22T06:53:09.490Z,8.49
2018-12-22T06:54:09.498Z,8.51
2018-12-22T06:55:09.468Z,8.44
2018-12-22T06:56:09.452Z,8.49
2018-12-22T06:57:09.440Z,8.55
2018-12-22T06:58:09.429Z,8.55
2018-12-22T06:59:09.445Z,8.57
2018-12-22T07:00:17.470Z,8.63
2018-12-22T07:01:10.399Z,8.63
2018-12-22T07:02:09.382Z,8.64
2018-12-22T07:03:09.374Z,8.72
2018-12-22T07:04:09.393Z,8.78
2018-12-22T07:05:09.351Z,8.73
2018-12-22T07:06:09.341Z,8.81
2018-12-22T07:07:09.328Z,8.81
2018-12-22T07:08:09.379Z,8.81
2018-12-22T07:09:09.324Z,8.75
2018-12-22T07:10:09.300Z,8.82
2018-12-22T07:11:09.278Z,8.84
2018-12-22T07:12:09.282Z,8.82
2018-12-22T07:13:09.252Z,8.77
2018-12-22T07:14:09.290Z,8.78
2018-12-22T07:15:09.238Z,8.75
2018-12-22T07:16:09.222Z,8.73
2018-12-22T07:17:09.217Z,8.66
2018-12-22T07:18:09.200Z,8.67
2018-12-22T07:19:09.210Z,8.59
2018-12-22T07:20:09.182Z,8.62
2018-12-22T07:21:09.178Z,8.63
2018-12-22T07:22:09.164Z,8.54
2018-12-22T07:23:09.145Z,8.57
2018-12-22T07:24:09.166Z,8.59
2018-12-22T07:25:09.121Z,8.49
2018-12-22T07:26:09.114Z,8.48
2018-12-22T07:27:09.097Z,8.49
2018-12-22T07:28:09.087Z,8.48
2018-12-22T07:29:09.080Z,8.52
2018-12-22T07:30:09.083Z,8.47
2018-12-22T07:31:09.048Z,8.54
2018-12-22T07:32:09.048Z,8.52
2018-12-22T07:33:09.034Z,8.47
2018-12-22T07:34:09.033Z,8.39
2018-12-22T07:35:09.021Z,8.51
2018-12-22T07:36:09.015Z,8.45
2018-12-22T07:37:08.988Z,8.36
2018-12-22T07:38:09.130Z,8.39
2018-12-22T07:39:08.967Z,8.39
2018-12-22T07:40:09.077Z,8.33
2018-12-22T07:41:08.937Z,8.47
2018-12-22T07:42:08.948Z,8.42
2018-12-22T07:43:08.932Z,8.36
2018-12-22T07:44:08.910Z,8.44
2018-12-22T07:45:08.923Z,8.31
2018-12-22T07:46:08.888Z,8.31
2018-12-22T07:47:08.871Z,8.36
2018-12-22T07:48:08.866Z,8.30
2018-12-22T07:49:08.848Z,8.29
2018-12-22T07:50:08.855Z,8.39
2018-12-22T07:51:08.830Z,8.15
2018-12-22T07:52:08.823Z,8.27
2018-12-22T07:53:08.805Z,8.24
2018-12-22T07:54:08.804Z,8.23
2018-12-22T07:55:08.793Z,8.21
2018-12-22T07:56:08.769Z,8.29
2018-12-22T07:57:08.760Z,8.23
2018-12-22T07:58:08.749Z,8.23
2018-12-22T07:59:08.736Z,8.24
2018-12-22T08:00:08.750Z,8.29
2018-12-22T08:01:08.714Z,8.13
2018-12-22T08:02:08.704Z,8.31
2018-12-22T08:03:08.694Z,8.18
2018-12-22T08:04:08.674Z,8.26
2018-12-22T08:05:08.686Z,8.21
2018-12-22T08:06:08.657Z,8.23
2018-12-22T08:07:08.638Z,8.30
2018-12-22T08:08:08.629Z,8.29
2018-12-22T08:09:08.618Z,8.23
2018-12-22T08:10:08.639Z,8.18
2018-12-22T08:11:08.601Z,8.24
2018-12-22T08:12:08.586Z,8.20
2018-12-22T08:13:08.585Z,8.20
2018-12-22T08:14:08.665Z,8.21
2018-12-22T08:15:08.573Z,8.23
2018-12-22T08:16:08.537Z,8.20
2018-12-22T08:17:08.531Z,8.15
2018-12-22T08:18:08.515Z,8.20
2018-12-22T08:19:08.505Z,8.24
2018-12-22T08:20:08.500Z,8.20
2018-12-22T08:21:08.500Z,8.20
2018-12-22T08:22:08.642Z,8.24
2018-12-22T08:23:08.469Z,8.23
2018-12-22T08:24:08.459Z,8.20
2018-12-22T08:25:08.433Z,8.21
2018-12-22T08:26:08.451Z,8.16
2018-12-22T08:27:08.411Z,8.09
2018-12-22T08:28:08.407Z,8.18
2018-12-22T08:29:08.389Z,8.12
2018-12-22T08:30:08.377Z,8.08
2018-12-22T08:31:08.387Z,8.11
2018-12-22T08:32:08.370Z,8.02
2018-12-22T08:33:08.342Z,7.98
2018-12-22T08:34:08.331Z,8.05
2018-12-22T08:35:08.324Z,8.09
2018-12-22T08:36:08.348Z,8.01
2018-12-22T08:37:08.297Z,8.02
2018-12-22T08:38:08.286Z,8.01
2018-12-22T08:39:08.403Z,8.01
2018-12-22T08:40:08.265Z,8.02
2018-12-22T08:41:08.266Z,7.98
2018-12-22T08:42:08.242Z,8.01
2018-12-22T08:43:08.238Z,8.02
2018-12-22T08:44:08.213Z,8.04
2018-12-22T08:45:08.210Z,8.08
2018-12-22T08:46:08.230Z,7.97
2018-12-22T08:47:08.186Z,8.05
2018-12-22T08:48:08.172Z,7.98
2018-12-22T08:49:08.169Z,8.05
2018-12-22T08:50:09.384Z,7.98
2018-12-22T08:51:08.163Z,7.98
2018-12-22T08:52:08.130Z,8.01
2018-12-22T08:53:08.109Z,8.01
2018-12-22T08:54:08.114Z,8.01
2018-12-22T08:55:08.093Z,8.04
2018-12-22T08:56:08.098Z,8.01
2018-12-22T08:57:08.067Z,8.06
2018-12-22T08:58:08.057Z,7.98
2018-12-22T08:59:08.049Z,8.04
2018-12-22T09:00:08.036Z,7.98
2018-12-22T09:01:08.046Z,8.05
2018-12-22T09:02:08.012Z,8.01
2018-12-22T09:03:07.997Z,7.98
2018-12-22T09:04:07.992Z,8.01
2018-12-22T09:05:07.981Z,7.98
2018-12-22T09:06:07.992Z,8.06
2018-12-22T09:07:07.967Z,8.01
2018-12-22T09:08:07.941Z,8.05
2018-12-22T09:09:07.929Z,8.01
2018-12-22T09:10:07.924Z,8.09
2018-12-22T09:11:07.905Z,8.02
2018-12-22T09:12:07.922Z,8.13
2018-12-22T09:13:07.884Z,8.02
2018-12-22T09:14:07.875Z,8.05
2018-12-22T09:15:07.865Z,8.09
2018-12-22T09:16:07.852Z,8.09
2018-12-22T09:17:07.850Z,8.16
2018-12-22T09:18:07.829Z,8.09
2018-12-22T09:19:07.816Z,8.15
2018-12-22T09:20:07.802Z,8.11
2018-12-22T09:21:07.795Z,8.08
2018-12-22T09:22:07.808Z,8.09
2018-12-22T09:23:07.785Z,8.09
2018-12-22T09:24:07.767Z,8.11
2018-12-22T09:25:07.757Z,8.15
2018-12-22T09:26:08.612Z,8.12
2018-12-22T09:27:07.751Z,8.11
2018-12-22T09:28:07.710Z,8.13
2018-12-22T09:29:07.701Z,8.12
2018-12-22T09:30:07.686Z,8.16
2018-12-22T09:31:07.675Z,8.09
2018-12-22T09:32:07.697Z,8.15
2018-12-22T09:33:07.652Z,8.13
2018-12-22T09:34:13.284Z,8.06
2018-12-22T09:35:08.636Z,8.09
2018-12-22T09:36:07.617Z,8.11
2018-12-22T09:37:07.627Z,8.11
2018-12-22T09:38:07.602Z,8.09
2018-12-22T09:39:07.657Z,8.11
2018-12-22T09:40:07.575Z,8.09
2018-12-22T09:41:07.559Z,8.05
2018-12-22T09:42:07.547Z,8.12
2018-12-22T09:43:07.556Z,8.06
2018-12-22T09:44:07.532Z,8.06
2018-12-22T09:45:07.508Z,8.13
2018-12-22T09:46:07.502Z,8.11
2018-12-22T09:47:07.631Z,8.08
2018-12-22T09:48:08.497Z,8.13
2018-12-22T09:49:07.469Z,8.13
2018-12-22T09:50:07.455Z,8.18
2018-12-22T09:51:07.451Z,8.16
2018-12-22T09:52:07.430Z,8.11
2018-12-22T09:53:07.577Z,8.09
2018-12-22T09:54:07.420Z,8.20
2018-12-22T09:55:07.398Z,8.21
2018-12-22T09:56:07.391Z,8.20
2018-12-22T09:57:07.402Z,8.12
2018-12-22T09:58:07.389Z,8.13
2018-12-22T09:59:07.354Z,8.12
2018-12-22T10:00:07.351Z,7.98
2018-12-22T10:01:09.374Z,8.09
2018-12-22T10:02:07.323Z,8.05
2018-12-22T10:03:07.341Z,7.98
2018-12-22T10:04:07.321Z,7.98
2018-12-22T10:05:07.300Z,8.09
2018-12-22T10:06:07.276Z,8.12
2018-12-22T10:07:07.259Z,8.06
2018-12-22T10:08:07.278Z,8.11
2018-12-22T10:09:07.241Z,7.98
2018-12-22T10:10:07.224Z,8.11
2018-12-22T10:11:07.219Z,8.09
2018-12-22T10:12:07.199Z,8.13
2018-12-22T10:13:07.215Z,8.13
2018-12-22T10:14:07.185Z,8.06
2018-12-22T10:15:07.172Z,8.13
2018-12-22T10:16:07.163Z,8.24
2018-12-22T10:17:07.149Z,8.16
2018-12-22T10:18:07.155Z,8.24
2018-12-22T10:19:07.123Z,8.23
2018-12-22T10:20:07.107Z,8.26
2018-12-22T10:21:07.103Z,8.26
2018-12-22T10:22:07.092Z,8.24
2018-12-22T10:23:07.107Z,8.24
2018-12-22T10:24:07.068Z,8.18
2018-12-22T10:25:07.055Z,8.20
2018-12-22T10:26:07.040Z,8.11
2018-12-22T10:27:07.039Z,8.09
2018-12-22T10:28:07.046Z,8.11
2018-12-22T10:29:07.005Z,7.96
2018-12-22T10:30:06.990Z,8.04
2018-12-22T10:31:06.984Z,8.06
2018-12-22T10:32:06.978Z,8.09
2018-12-22T10:33:06.986Z,8.08
2018-12-22T10:34:06.948Z,8.08
2018-12-22T10:35:06.938Z,8.04
2018-12-22T10:36:06.927Z,7.98
2018-12-22T10:37:06.914Z,7.98
2018-12-22T10:38:06.920Z,8.09
2018-12-22T10:39:06.912Z,8.12
2018-12-22T10:40:06.883Z,8.01
2018-12-22T10:41:06.867Z,7.98
2018-12-22T10:42:06.858Z,7.96
2018-12-22T10:43:06.839Z,7.98
2018-12-22T10:44:06.848Z,8.01
2018-12-22T10:45:06.829Z,7.93
2018-12-22T10:46:06.816Z,8.01
2018-12-22T10:47:06.799Z,7.96
2018-12-22T10:48:06.788Z,7.97
2018-12-22T10:49:06.800Z,7.98
2018-12-22T10:50:06.764Z,8.01
2018-12-22T10:51:06.753Z,8.01
2018-12-22T10:52:06.732Z,8.02
2018-12-22T10:53:06.745Z,8.02
2018-12-22T10:54:06.737Z,7.98
2018-12-22T10:55:06.702Z,8.06
2018-12-22T10:56:06.693Z,8.04
2018-12-22T10:57:06.683Z,8.02
2018-12-22T10:58:06.666Z,7.97
2018-12-22T10:59:06.700Z,8.01
2018-12-22T11:00:11.743Z,7.98
2018-12-22T11:01:06.651Z,8.02
2018-12-22T11:02:06.622Z,8.02
2018-12-22T11:03:06.616Z,8.01
2018-12-22T11:04:06.621Z,7.98
2018-12-22T11:05:06.594Z,8.09
2018-12-22T11:06:06.580Z,7.98
2018-12-22T11:07:06.578Z,8.12
2018-12-22T11:08:06.554Z,8.06
2018-12-22T11:09:06.567Z,8.01
2018-12-22T11:10:06.535Z,8.02
2018-12-22T11:11:06.519Z,8.01
2018-12-22T11:12:06.516Z,7.98
2018-12-22T11:13:06.500Z,7.97
2018-12-22T11:14:06.503Z,8.08
2018-12-22T11:15:06.495Z,8.01
2018-12-22T11:16:06.458Z,8.02
2018-12-22T11:17:06.479Z,8.05
2018-12-22T11:18:06.451Z,7.98
2018-12-22T11:19:06.447Z,7.96
2018-12-22T11:20:06.423Z,7.98
2018-12-22T11:21:06.407Z,7.91
2018-12-22T11:22:06.400Z,7.97
2018-12-22T11:23:06.399Z,7.91
2018-12-22T11:24:06.392Z,7.90
2018-12-22T11:25:06.363Z,7.96
2018-12-22T11:26:06.347Z,7.97
2018-12-22T11:27:06.351Z,7.96
2018-12-22T11:28:06.326Z,8.01
2018-12-22T11:29:06.338Z,7.98
2018-12-22T11:30:06.325Z,7.96
2018-12-22T11:31:06.296Z,7.96
2018-12-22T11:32:06.282Z,8.01
2018-12-22T11:33:06.263Z,7.96
2018-12-22T11:34:06.299Z,8.12
2018-12-22T11:35:06.250Z,8.01
2018-12-22T11:36:06.236Z,8.12
2018-12-22T11:37:06.220Z,8.15
2018-12-22T11:38:06.207Z,7.98
2018-12-22T11:39:06.193Z,7.98
2018-12-22T11:40:06.214Z,8.02
2018-12-22T11:41:06.178Z,8.05
2018-12-22T11:42:06.170Z,8.01
2018-12-22T11:43:06.154Z,8.01
2018-12-22T11:44:06.140Z,7.98
2018-12-22T11:45:06.148Z,7.98
2018-12-22T11:46:06.117Z,7.94
2018-12-22T11:47:06.118Z,7.91
2018-12-22T11:48:06.093Z,7.87
2018-12-22T11:49:06.096Z,7.93
2018-12-22T11:50:06.089Z,7.93
2018-12-22T11:51:06.058Z,7.91
2018-12-22T11:52:06.049Z,7.90
2018-12-22T11:53:06.038Z,7.88
2018-12-22T11:54:06.024Z,7.90
2018-12-22T11:55:06.041Z,7.91
2018-12-22T11:56:05.999Z,7.87
2018-12-22T11:57:05.996Z,7.88
2018-12-22T11:58:05.984Z,7.80
2018-12-22T11:59:05.968Z,7.91
2018-12-22T12:00:05.985Z,7.91
2018-12-22T12:01:06.010Z,8.01
2018-12-22T12:02:09.928Z,8.02
2018-12-22T12:03:05.923Z,8.01
2018-12-22T12:04:05.906Z,8.01
2018-12-22T12:05:05.913Z,8.04
2018-12-22T12:06:05.885Z,8.04
2018-12-22T12:07:05.879Z,8.04
2018-12-22T12:08:05.861Z,8.02
2018-12-22T12:09:05.846Z,8.04
2018-12-22T12:10:05.880Z,8.01
2018-12-22T12:11:05.954Z,7.96
2018-12-22T12:12:05.813Z,7.96
2018-12-22T12:13:05.805Z,7.90
2018-12-22T12:14:05.793Z,7.91
2018-12-22T12:15:05.785Z,7.91
2018-12-22T12:16:05.794Z,7.93
2018-12-22T12:17:05.757Z,7.84
2018-12-22T12:18:05.751Z,7.83
2018-12-22T12:19:05.740Z,7.93
2018-12-22T12:20:05.719Z,7.93
2018-12-22T12:21:05.724Z,7.86
2018-12-22T12:22:05.703Z,7.86
2018-12-22T12:23:05.697Z,7.83
2018-12-22T12:24:05.678Z,7.90
2018-12-22T12:25:05.666Z,7.90
2018-12-22T12:26:05.672Z,7.84
2018-12-22T12:27:05.643Z,7.84
2018-12-22T12:28:05.629Z,7.84
2018-12-22T12:29:05.619Z,7.88
2018-12-22T12:30:05.610Z,7.86
2018-12-22T12:31:05.625Z,7.78
2018-12-22T12:32:05.597Z,7.80
2018-12-22T12:33:05.591Z,7.76
2018-12-22T12:34:05.562Z,7.75
2018-12-22T12:35:05.555Z,7.78
2018-12-22T12:36:05.553Z,7.76
2018-12-22T12:37:05.553Z,7.80
2018-12-22T12:38:05.523Z,7.76
2018-12-22T12:39:05.523Z,7.80
2018-12-22T12:40:05.496Z,7.72
2018-12-22T12:41:05.511Z,7.78
2018-12-22T12:42:05.471Z,7.78
2018-12-22T12:43:05.471Z,7.76
2018-12-22T12:44:05.520Z,7.75
2018-12-22T12:45:05.440Z,7.79
2018-12-22T12:46:05.451Z,7.78
2018-12-22T12:47:05.418Z,7.75
2018-12-22T12:48:05.405Z,7.78
2018-12-22T12:49:05.388Z,7.84
2018-12-22T12:50:05.378Z,7.90
2018-12-22T12:51:05.568Z,7.86
2018-12-22T12:52:05.468Z,7.84
2018-12-22T12:53:09.527Z,7.80
2018-12-22T12:54:05.347Z,7.87
2018-12-22T12:55:05.325Z,7.87
2018-12-22T12:56:05.365Z,7.78
2018-12-22T12:57:05.299Z,7.79
2018-12-22T12:58:05.287Z,7.78
2018-12-22T12:59:05.297Z,7.75
2018-12-22T13:00:05.272Z,7.80
2018-12-22T13:01:05.283Z,7.68
2018-12-22T13:02:05.367Z,7.72
2018-12-22T13:03:05.229Z,7.66
2018-12-22T13:04:05.229Z,7.64
2018-12-22T13:05:05.224Z,7.60
2018-12-22T13:06:05.236Z,7.53
2018-12-22T13:07:05.194Z,7.60
2018-12-22T13:08:05.182Z,7.59
2018-12-22T13:09:05.174Z,7.53
2018-12-22T13:10:05.175Z,7.49
2018-12-22T13:11:05.146Z,7.53
2018-12-22T13:12:05.171Z,7.52
2018-12-22T13:13:05.202Z,7.50
2018-12-22T13:14:05.123Z,7.57
2018-12-22T13:15:05.097Z,7.52
2018-12-22T13:16:05.094Z,7.54
2018-12-22T13:17:05.101Z,7.53
2018-12-22T13:18:05.073Z,7.59